sensor_id;sensor_type;location;lat;lon;timestamp;pressure;altitude;pressure_sealevel;temperature;humidity
23635;BME280;11994;51.038;16.974;2022-09-25T00:00:43;99896.29;;;10.25;78.33
23635;BME280;11994;51.038;16.974;2022-09-25T00:03:12;99898.00;;;10.26;78.37
23635;BME280;11994;51.038;16.974;2022-09-25T00:05:40;99892.83;;;10.25;78.43
23635;BME280;11994;51.038;16.974;2022-09-25T00:08:08;99896.77;;;10.25;78.54
23635;BME280;11994;51.038;16.974;2022-09-25T00:10:43;99901.13;;;10.24;78.54
23635;BME280;11994;51.038;16.974;2022-09-25T00:13:10;99893.27;;;10.24;78.54
23635;BME280;11994;51.038;16.974;2022-09-25T00:15:37;99891.21;;;10.19;78.51
23635;BME280;11994;51.038;16.974;2022-09-25T00:18:03;99889.53;;;10.17;78.55
23635;BME280;11994;51.038;16.974;2022-09-25T00:20:29;99890.41;;;10.17;78.56
23635;BME280;11994;51.038;16.974;2022-09-25T00:22:55;99887.78;;;10.17;78.58
23635;BME280;11994;51.038;16.974;2022-09-25T00:25:23;99890.84;;;10.17;78.74
23635;BME280;11994;51.038;16.974;2022-09-25T00:27:52;99896.08;;;10.17;78.68
23635;BME280;11994;51.038;16.974;2022-09-25T00:30:18;99895.34;;;10.12;78.62
23635;BME280;11994;51.038;16.974;2022-09-25T00:32:43;99892.55;;;10.02;78.57
23635;BME280;11994;51.038;16.974;2022-09-25T00:35:09;99896.57;;;9.97;78.73
23635;BME280;11994;51.038;16.974;2022-09-25T00:37:36;99889.27;;;9.92;78.76
23635;BME280;11994;51.038;16.974;2022-09-25T00:40:03;99885.88;;;9.89;78.87
23635;BME280;11994;51.038;16.974;2022-09-25T00:42:30;99889.97;;;9.83;78.77
23635;BME280;11994;51.038;16.974;2022-09-25T00:47:38;99887.50;;;9.77;79.54
23635;BME280;11994;51.038;16.974;2022-09-25T00:53:11;99888.03;;;9.91;79.30
23635;BME280;11994;51.038;16.974;2022-09-25T00:55:39;99879.55;;;9.81;79.00
23635;BME280;11994;51.038;16.974;2022-09-25T00:58:08;99884.05;;;9.76;79.06
23635;BME280;11994;51.038;16.974;2022-09-25T01:00:36;99884.48;;;9.76;79.15
23635;BME280;11994;51.038;16.974;2022-09-25T01:03:03;99882.61;;;9.81;79.21
23635;BME280;11994;51.038;16.974;2022-09-25T01:05:32;99880.80;;;9.83;79.34
23635;BME280;11994;51.038;16.974;2022-09-25T01:08:00;99881.55;;;9.88;79.49
23635;BME280;11994;51.038;16.974;2022-09-25T01:10:28;99883.36;;;9.86;79.44
23635;BME280;11994;51.038;16.974;2022-09-25T01:12:55;99881.36;;;9.78;79.39
23635;BME280;11994;51.038;16.974;2022-09-25T01:15:27;99874.91;;;9.75;79.23
23635;BME280;11994;51.038;16.974;2022-09-25T01:18:07;99879.98;;;9.63;79.11
23635;BME280;11994;51.038;16.974;2022-09-25T01:26:19;99877.39;;;9.46;79.92
23635;BME280;11994;51.038;16.974;2022-09-25T01:34:25;99879.67;;;9.59;80.27
23635;BME280;11994;51.038;16.974;2022-09-25T01:36:58;99876.99;;;9.61;80.15
23635;BME280;11994;51.038;16.974;2022-09-25T01:39:38;99867.14;;;9.54;80.06
23635;BME280;11994;51.038;16.974;2022-09-25T01:45:00;99876.55;;;9.44;80.22
23635;BME280;11994;51.038;16.974;2022-09-25T01:47:30;99881.38;;;9.43;80.39
23635;BME280;11994;51.038;16.974;2022-09-25T01:50:02;99877.54;;;9.40;80.61
23635;BME280;11994;51.038;16.974;2022-09-25T01:52:37;99874.45;;;9.40;80.80
23635;BME280;11994;51.038;16.974;2022-09-25T01:55:05;99880.00;;;9.46;81.24
23635;BME280;11994;51.038;16.974;2022-09-25T01:57:42;99872.00;;;9.52;81.03
23635;BME280;11994;51.038;16.974;2022-09-25T02:00:18;99878.17;;;9.49;80.72
23635;BME280;11994;51.038;16.974;2022-09-25T02:02:51;99878.67;;;9.47;80.92
23635;BME280;11994;51.038;16.974;2022-09-25T02:05:33;99883.28;;;9.54;81.23
23635;BME280;11994;51.038;16.974;2022-09-25T02:08:03;99877.23;;;9.52;80.76
23635;BME280;11994;51.038;16.974;2022-09-25T02:10:34;99877.94;;;9.41;80.82
23635;BME280;11994;51.038;16.974;2022-09-25T02:13:05;99883.56;;;9.43;81.11
23635;BME280;11994;51.038;16.974;2022-09-25T02:15:36;99877.39;;;9.46;81.02
23635;BME280;11994;51.038;16.974;2022-09-25T02:18:07;99875.15;;;9.48;81.06
23635;BME280;11994;51.038;16.974;2022-09-25T02:21:02;99872.84;;;9.52;81.23
23635;BME280;11994;51.038;16.974;2022-09-25T02:23:51;99867.20;;;9.51;80.84
23635;BME280;11994;51.038;16.974;2022-09-25T02:26:30;99870.50;;;9.42;80.64
23635;BME280;11994;51.038;16.974;2022-09-25T02:28:52;99875.97;;;9.33;80.71
23635;BME280;11994;51.038;16.974;2022-09-25T02:31:20;99879.58;;;9.27;80.81
23635;BME280;11994;51.038;16.974;2022-09-25T02:33:50;99870.44;;;9.26;80.89
23635;BME280;11994;51.038;16.974;2022-09-25T02:36:18;99869.86;;;9.32;81.31
23635;BME280;11994;51.038;16.974;2022-09-25T02:38:47;99869.92;;;9.29;80.87
23635;BME280;11994;51.038;16.974;2022-09-25T02:52:42;99866.73;;;8.98;81.13
23635;BME280;11994;51.038;16.974;2022-09-25T03:00:37;99860.83;;;8.71;81.73
23635;BME280;11994;51.038;16.974;2022-09-25T03:03:07;99852.12;;;8.69;82.19
23635;BME280;11994;51.038;16.974;2022-09-25T03:05:35;99856.77;;;8.77;82.50
23635;BME280;11994;51.038;16.974;2022-09-25T03:08:02;99853.12;;;8.84;82.49
23635;BME280;11994;51.038;16.974;2022-09-25T03:10:47;99852.08;;;8.91;82.48
23635;BME280;11994;51.038;16.974;2022-09-25T03:13:22;99855.05;;;8.95;82.35
23635;BME280;11994;51.038;16.974;2022-09-25T03:15:54;99848.10;;;8.94;82.21
23635;BME280;11994;51.038;16.974;2022-09-25T03:18:24;99848.42;;;8.98;82.49
23635;BME280;11994;51.038;16.974;2022-09-25T03:20:51;99850.48;;;9.03;82.42
23635;BME280;11994;51.038;16.974;2022-09-25T03:23:17;99858.34;;;9.03;82.31
23635;BME280;11994;51.038;16.974;2022-09-25T03:25:43;99853.48;;;9.05;82.37
23635;BME280;11994;51.038;16.974;2022-09-25T03:28:10;99851.77;;;9.04;82.43
23635;BME280;11994;51.038;16.974;2022-09-25T03:30:38;99845.20;;;9.06;82.50
23635;BME280;11994;51.038;16.974;2022-09-25T03:33:11;99849.41;;;9.11;82.52
23635;BME280;11994;51.038;16.974;2022-09-25T03:35:38;99848.98;;;9.12;82.51
23635;BME280;11994;51.038;16.974;2022-09-25T03:38:05;99850.41;;;9.07;82.14
23635;BME280;11994;51.038;16.974;2022-09-25T03:40:34;99844.94;;;8.99;82.03
23635;BME280;11994;51.038;16.974;2022-09-25T03:43:00;99846.79;;;8.94;82.19
23635;BME280;11994;51.038;16.974;2022-09-25T03:45:26;99849.44;;;8.92;82.30
23635;BME280;11994;51.038;16.974;2022-09-25T03:47:53;99847.41;;;8.84;82.30
23635;BME280;11994;51.038;16.974;2022-09-25T03:50:19;99851.72;;;8.87;82.74
23635;BME280;11994;51.038;16.974;2022-09-25T03:52:45;99850.86;;;8.88;82.65
23635;BME280;11994;51.038;16.974;2022-09-25T03:55:11;99854.40;;;8.85;82.75
23635;BME280;11994;51.038;16.974;2022-09-25T03:57:37;99854.78;;;8.88;82.85
23635;BME280;11994;51.038;16.974;2022-09-25T04:00:04;99846.49;;;8.87;82.70
23635;BME280;11994;51.038;16.974;2022-09-25T04:02:31;99844.45;;;8.82;82.56
23635;BME280;11994;51.038;16.974;2022-09-25T04:04:57;99845.86;;;8.76;82.89
23635;BME280;11994;51.038;16.974;2022-09-25T04:07:23;99848.37;;;8.82;83.12
23635;BME280;11994;51.038;16.974;2022-09-25T04:09:49;99842.33;;;8.78;82.92
23635;BME280;11994;51.038;16.974;2022-09-25T04:12:16;99836.71;;;8.76;83.01
23635;BME280;11994;51.038;16.974;2022-09-25T04:14:42;99839.00;;;8.72;82.87
23635;BME280;11994;51.038;16.974;2022-09-25T04:17:09;99837.34;;;8.68;82.88
23635;BME280;11994;51.038;16.974;2022-09-25T04:19:36;99831.84;;;8.61;82.85
23635;BME280;11994;51.038;16.974;2022-09-25T04:22:02;99833.28;;;8.55;83.10
23635;BME280;11994;51.038;16.974;2022-09-25T04:24:28;99839.32;;;8.57;83.46
23635;BME280;11994;51.038;16.974;2022-09-25T04:27:12;99836.95;;;8.65;83.81
23635;BME280;11994;51.038;16.974;2022-09-25T04:29:38;99849.36;;;8.76;83.64
23635;BME280;11994;51.038;16.974;2022-09-25T04:32:06;99849.37;;;8.75;83.43
23635;BME280;11994;51.038;16.974;2022-09-25T04:34:51;99848.02;;;8.78;83.46
23635;BME280;11994;51.038;16.974;2022-09-25T04:37:17;99845.95;;;8.73;83.16
23635;BME280;11994;51.038;16.974;2022-09-25T04:39:45;99837.83;;;8.66;83.16
23635;BME280;11994;51.038;16.974;2022-09-25T04:42:11;99838.78;;;8.62;83.22
23635;BME280;11994;51.038;16.974;2022-09-25T04:44:37;99849.65;;;8.63;83.58
23635;BME280;11994;51.038;16.974;2022-09-25T04:47:03;99849.90;;;8.71;83.83
23635;BME280;11994;51.038;16.974;2022-09-25T04:49:29;99856.81;;;8.74;83.65
23635;BME280;11994;51.038;16.974;2022-09-25T04:51:55;99851.05;;;8.79;83.68
23635;BME280;11994;51.038;16.974;2022-09-25T04:54:21;99852.73;;;8.81;83.68
23635;BME280;11994;51.038;16.974;2022-09-25T04:56:47;99846.11;;;8.84;83.70
23635;BME280;11994;51.038;16.974;2022-09-25T04:59:13;99844.86;;;8.83;83.43
23635;BME280;11994;51.038;16.974;2022-09-25T05:01:41;99840.85;;;8.67;83.08
23635;BME280;11994;51.038;16.974;2022-09-25T05:04:07;99850.11;;;8.62;83.20
23635;BME280;11994;51.038;16.974;2022-09-25T05:06:33;99847.93;;;8.62;83.34
23635;BME280;11994;51.038;16.974;2022-09-25T05:08:59;99851.36;;;8.64;83.60
23635;BME280;11994;51.038;16.974;2022-09-25T05:11:25;99848.31;;;8.64;83.38
23635;BME280;11994;51.038;16.974;2022-09-25T05:13:51;99843.73;;;8.55;82.96
23635;BME280;11994;51.038;16.974;2022-09-25T05:16:18;99849.22;;;8.43;83.00
23635;BME280;11994;51.038;16.974;2022-09-25T05:18:44;99853.19;;;8.40;83.27
23635;BME280;11994;51.038;16.974;2022-09-25T05:21:10;99859.31;;;8.39;83.33
23635;BME280;11994;51.038;16.974;2022-09-25T05:23:36;99855.44;;;8.36;83.46
23635;BME280;11994;51.038;16.974;2022-09-25T05:26:02;99855.37;;;8.40;83.80
23635;BME280;11994;51.038;16.974;2022-09-25T05:28:29;99852.60;;;8.48;84.06
23635;BME280;11994;51.038;16.974;2022-09-25T05:30:58;99853.78;;;8.54;84.18
23635;BME280;11994;51.038;16.974;2022-09-25T05:33:26;99855.64;;;8.68;84.49
23635;BME280;11994;51.038;16.974;2022-09-25T05:35:52;99853.71;;;8.76;84.26
23635;BME280;11994;51.038;16.974;2022-09-25T05:38:18;99859.68;;;8.82;84.12
23635;BME280;11994;51.038;16.974;2022-09-25T05:40:44;99857.83;;;8.87;84.25
23635;BME280;11994;51.038;16.974;2022-09-25T05:43:10;99855.83;;;8.98;84.46
23635;BME280;11994;51.038;16.974;2022-09-25T05:45:37;99855.72;;;9.03;84.07
23635;BME280;11994;51.038;16.974;2022-09-25T05:48:05;99855.05;;;8.95;83.84
23635;BME280;11994;51.038;16.974;2022-09-25T05:50:32;99849.95;;;8.89;83.76
23635;BME280;11994;51.038;16.974;2022-09-25T05:53:00;99849.19;;;8.84;84.06
23635;BME280;11994;51.038;16.974;2022-09-25T05:55:28;99849.05;;;8.90;84.55
23635;BME280;11994;51.038;16.974;2022-09-25T05:58:00;99849.44;;;8.92;84.37
23635;BME280;11994;51.038;16.974;2022-09-25T06:00:24;99843.73;;;8.93;84.59
23635;BME280;11994;51.038;16.974;2022-09-25T06:02:51;99850.72;;;8.94;84.70
23635;BME280;11994;51.038;16.974;2022-09-25T06:05:17;99849.79;;;8.96;84.94
23635;BME280;11994;51.038;16.974;2022-09-25T06:07:43;99850.08;;;9.02;85.08
23635;BME280;11994;51.038;16.974;2022-09-25T06:10:09;99851.19;;;9.11;85.40
23635;BME280;11994;51.038;16.974;2022-09-25T06:12:36;99848.31;;;9.21;85.40
23635;BME280;11994;51.038;16.974;2022-09-25T06:15:01;99853.38;;;9.29;85.69
23635;BME280;11994;51.038;16.974;2022-09-25T06:17:28;99853.45;;;9.43;86.13
23635;BME280;11994;51.038;16.974;2022-09-25T06:19:53;99849.74;;;9.52;86.09
23635;BME280;11994;51.038;16.974;2022-09-25T06:22:19;99851.17;;;9.63;86.33
23635;BME280;11994;51.038;16.974;2022-09-25T06:24:45;99847.30;;;9.78;86.23
23635;BME280;11994;51.038;16.974;2022-09-25T06:27:13;99846.14;;;9.89;86.35
23635;BME280;11994;51.038;16.974;2022-09-25T06:29:38;99842.28;;;10.02;86.49
23635;BME280;11994;51.038;16.974;2022-09-25T06:32:04;99837.61;;;10.15;86.61
23635;BME280;11994;51.038;16.974;2022-09-25T06:34:30;99832.56;;;10.23;86.20
23635;BME280;11994;51.038;16.974;2022-09-25T06:36:56;99828.02;;;10.30;86.23
23635;BME280;11994;51.038;16.974;2022-09-25T06:39:21;99829.92;;;10.39;86.37
23635;BME280;11994;51.038;16.974;2022-09-25T06:41:47;99833.90;;;10.52;86.50
23635;BME280;11994;51.038;16.974;2022-09-25T06:44:13;99827.92;;;10.62;86.53
23635;BME280;11994;51.038;16.974;2022-09-25T06:46:39;99829.38;;;10.72;86.66
23635;BME280;11994;51.038;16.974;2022-09-25T06:49:07;99822.48;;;10.82;86.75
23635;BME280;11994;51.038;16.974;2022-09-25T06:51:34;99830.45;;;10.94;86.86
23635;BME280;11994;51.038;16.974;2022-09-25T06:53:59;99828.23;;;11.08;87.02
23635;BME280;11994;51.038;16.974;2022-09-25T06:56:25;99831.70;;;11.23;86.83
23635;BME280;11994;51.038;16.974;2022-09-25T06:58:51;99829.99;;;11.35;86.75
23635;BME280;11994;51.038;16.974;2022-09-25T07:01:17;99823.50;;;11.46;86.65
23635;BME280;11994;51.038;16.974;2022-09-25T07:03:43;99831.75;;;11.62;86.75
23635;BME280;11994;51.038;16.974;2022-09-25T07:06:12;99825.60;;;11.74;86.81
23635;BME280;11994;51.038;16.974;2022-09-25T07:08:39;99826.31;;;11.92;86.80
23635;BME280;11994;51.038;16.974;2022-09-25T07:11:06;99829.07;;;12.01;86.25
23635;BME280;11994;51.038;16.974;2022-09-25T07:13:35;99827.63;;;12.03;86.28
23635;BME280;11994;51.038;16.974;2022-09-25T07:16:03;99823.25;;;12.15;86.40
23635;BME280;11994;51.038;16.974;2022-09-25T07:18:32;99822.80;;;12.27;86.42
23635;BME280;11994;51.038;16.974;2022-09-25T07:21:05;99826.82;;;12.37;86.39
23635;BME280;11994;51.038;16.974;2022-09-25T07:23:32;99829.48;;;12.49;86.36
23635;BME280;11994;51.038;16.974;2022-09-25T07:26:09;99829.98;;;12.58;86.31
23635;BME280;11994;51.038;16.974;2022-09-25T07:28:38;99834.20;;;12.74;86.42
23635;BME280;11994;51.038;16.974;2022-09-25T07:31:19;99829.25;;;12.88;86.41
23635;BME280;11994;51.038;16.974;2022-09-25T07:33:47;99829.28;;;12.99;86.24
23635;BME280;11994;51.038;16.974;2022-09-25T07:36:13;99827.09;;;13.10;85.88
23635;BME280;11994;51.038;16.974;2022-09-25T07:38:40;99834.80;;;13.15;85.41
23635;BME280;11994;51.038;16.974;2022-09-25T07:41:09;99835.14;;;13.17;85.56
23635;BME280;11994;51.038;16.974;2022-09-25T07:43:36;99846.30;;;13.24;85.58
23635;BME280;11994;51.038;16.974;2022-09-25T07:46:04;99839.33;;;13.33;85.60
23635;BME280;11994;51.038;16.974;2022-09-25T07:48:30;99839.34;;;13.54;85.70
23635;BME280;11994;51.038;16.974;2022-09-25T07:51:06;99830.12;;;13.74;85.32
23635;BME280;11994;51.038;16.974;2022-09-25T07:53:33;99832.91;;;13.91;84.85
23635;BME280;11994;51.038;16.974;2022-09-25T07:56:00;99827.69;;;14.00;84.32
23635;BME280;11994;51.038;16.974;2022-09-25T07:58:27;99820.32;;;14.08;84.03
23635;BME280;11994;51.038;16.974;2022-09-25T08:00:57;99823.53;;;14.14;83.92
23635;BME280;11994;51.038;16.974;2022-09-25T08:03:25;99819.72;;;14.21;83.37
23635;BME280;11994;51.038;16.974;2022-09-25T08:06:08;99817.73;;;14.26;83.17
23635;BME280;11994;51.038;16.974;2022-09-25T08:08:36;99822.17;;;14.36;83.11
23635;BME280;11994;51.038;16.974;2022-09-25T08:11:05;99819.92;;;14.37;82.44
23635;BME280;11994;51.038;16.974;2022-09-25T08:13:33;99823.16;;;14.33;82.37
23635;BME280;11994;51.038;16.974;2022-09-25T08:16:11;99824.33;;;14.36;82.40
23635;BME280;11994;51.038;16.974;2022-09-25T08:18:40;99821.35;;;14.44;82.45
23635;BME280;11994;51.038;16.974;2022-09-25T08:21:10;99825.08;;;14.58;82.16
23635;BME280;11994;51.038;16.974;2022-09-25T08:23:40;99819.19;;;14.62;81.69
23635;BME280;11994;51.038;16.974;2022-09-25T08:26:07;99820.42;;;14.73;81.92
23635;BME280;11994;51.038;16.974;2022-09-25T08:28:34;99806.87;;;14.89;81.07
23635;BME280;11994;51.038;16.974;2022-09-25T08:31:00;99804.89;;;15.03;81.06
23635;BME280;11994;51.038;16.974;2022-09-25T08:33:28;99795.45;;;15.07;79.95
23635;BME280;11994;51.038;16.974;2022-09-25T08:36:00;99796.80;;;15.16;78.62
23635;BME280;11994;51.038;16.974;2022-09-25T08:38:28;99798.66;;;15.22;78.88
23635;BME280;11994;51.038;16.974;2022-09-25T08:41:00;99797.91;;;15.29;79.34
23635;BME280;11994;51.038;16.974;2022-09-25T08:43:59;99794.75;;;15.39;79.04
23635;BME280;11994;51.038;16.974;2022-09-25T08:46:58;99788.95;;;15.50;79.36
23635;BME280;11994;51.038;16.974;2022-09-25T08:52:43;99770.83;;;15.76;78.54
23635;BME280;11994;51.038;16.974;2022-09-25T08:55:18;99775.31;;;15.83;78.90
23635;BME280;11994;51.038;16.974;2022-09-25T08:57:43;99770.95;;;15.90;78.88
23635;BME280;11994;51.038;16.974;2022-09-25T09:00:18;99776.55;;;16.01;78.74
23635;BME280;11994;51.038;16.974;2022-09-25T09:02:54;99778.94;;;16.14;76.42
23635;BME280;11994;51.038;16.974;2022-09-25T09:05:31;99776.59;;;16.17;76.78
23635;BME280;11994;51.038;16.974;2022-09-25T09:08:02;99782.99;;;16.21;76.44
23635;BME280;11994;51.038;16.974;2022-09-25T09:10:44;99777.88;;;16.34;76.61
23635;BME280;11994;51.038;16.974;2022-09-25T09:16:17;99775.36;;;16.56;76.42
23635;BME280;11994;51.038;16.974;2022-09-25T09:18:51;99766.39;;;16.59;75.75
23635;BME280;11994;51.038;16.974;2022-09-25T09:21:31;99764.36;;;16.64;76.01
23635;BME280;11994;51.038;16.974;2022-09-25T09:24:15;99761.06;;;16.67;75.89
23635;BME280;11994;51.038;16.974;2022-09-25T09:36:23;99761.97;;;16.90;74.10
23635;BME280;11994;51.038;16.974;2022-09-25T09:41:54;99758.77;;;16.99;73.93
23635;BME280;11994;51.038;16.974;2022-09-25T09:52:44;99745.95;;;17.30;72.76
23635;BME280;11994;51.038;16.974;2022-09-25T09:55:43;99738.64;;;17.26;72.82
23635;BME280;11994;51.038;16.974;2022-09-25T09:58:18;99743.30;;;17.30;72.91
23635;BME280;11994;51.038;16.974;2022-09-25T10:00:50;99737.80;;;17.41;71.61
23635;BME280;11994;51.038;16.974;2022-09-25T10:03:23;99738.18;;;17.42;69.79
23635;BME280;11994;51.038;16.974;2022-09-25T10:06:06;99737.44;;;17.47;69.99
23635;BME280;11994;51.038;16.974;2022-09-25T10:08:29;99739.53;;;17.56;69.55
23635;BME280;11994;51.038;16.974;2022-09-25T10:10:55;99736.34;;;17.65;70.00
23635;BME280;11994;51.038;16.974;2022-09-25T10:13:31;99730.09;;;17.66;69.99
23635;BME280;11994;51.038;16.974;2022-09-25T10:16:03;99725.45;;;17.70;68.37
23635;BME280;11994;51.038;16.974;2022-09-25T10:18:58;99725.00;;;17.77;68.41
23635;BME280;11994;51.038;16.974;2022-09-25T10:21:42;99727.19;;;17.85;68.27
23635;BME280;11994;51.038;16.974;2022-09-25T10:32:47;99721.30;;;17.87;64.97
23635;BME280;11994;51.038;16.974;2022-09-25T10:41:01;99720.94;;;17.93;64.63
23635;BME280;11994;51.038;16.974;2022-09-25T10:43:29;99714.58;;;18.02;64.11
23635;BME280;11994;51.038;16.974;2022-09-25T10:46:15;99717.44;;;18.06;65.22
23635;BME280;11994;51.038;16.974;2022-09-25T10:48:39;99707.97;;;18.09;64.32
23635;BME280;11994;51.038;16.974;2022-09-25T10:51:25;99696.85;;;18.10;63.92
23635;BME280;11994;51.038;16.974;2022-09-25T10:54:09;99703.23;;;18.14;61.87
23635;BME280;11994;51.038;16.974;2022-09-25T10:56:37;99693.35;;;18.16;63.46
23635;BME280;11994;51.038;16.974;2022-09-25T10:59:18;99696.01;;;18.16;64.35
23635;BME280;11994;51.038;16.974;2022-09-25T11:01:46;99699.40;;;18.25;61.34
23635;BME280;11994;51.038;16.974;2022-09-25T11:04:30;99686.41;;;18.28;63.21
23635;BME280;11994;51.038;16.974;2022-09-25T11:07:01;99684.72;;;18.34;59.89
23635;BME280;11994;51.038;16.974;2022-09-25T11:09:32;99681.87;;;18.30;61.57
23635;BME280;11994;51.038;16.974;2022-09-25T11:12:20;99687.27;;;18.28;61.58
23635;BME280;11994;51.038;16.974;2022-09-25T11:14:58;99682.56;;;18.33;60.16
23635;BME280;11994;51.038;16.974;2022-09-25T11:17:32;99682.56;;;18.33;61.24
23635;BME280;11994;51.038;16.974;2022-09-25T11:28:30;99684.34;;;18.47;60.85
23635;BME280;11994;51.038;16.974;2022-09-25T11:31:12;99688.22;;;18.55;61.22
23635;BME280;11994;51.038;16.974;2022-09-25T11:39:51;99676.73;;;18.81;61.42
23635;BME280;11994;51.038;16.974;2022-09-25T11:42:52;99676.15;;;18.90;60.49
23635;BME280;11994;51.038;16.974;2022-09-25T11:48:05;99671.30;;;18.90;60.07
23635;BME280;11994;51.038;16.974;2022-09-25T11:50:56;99672.94;;;18.85;60.04
23635;BME280;11994;51.038;16.974;2022-09-25T12:08:01;99651.02;;;18.82;60.57
23635;BME280;11994;51.038;16.974;2022-09-25T12:16:18;99645.61;;;18.76;59.46
23635;BME280;11994;51.038;16.974;2022-09-25T12:21:56;99644.13;;;18.72;59.81
23635;BME280;11994;51.038;16.974;2022-09-25T12:38:17;99624.62;;;18.86;58.79
23635;BME280;11994;51.038;16.974;2022-09-25T12:41:02;99625.08;;;18.85;58.70
23635;BME280;11994;51.038;16.974;2022-09-25T12:44:12;99628.60;;;18.86;58.05
23635;BME280;11994;51.038;16.974;2022-09-25T12:46:52;99627.15;;;18.87;57.84
23635;BME280;11994;51.038;16.974;2022-09-25T12:49:42;99624.08;;;18.93;57.44
23635;BME280;11994;51.038;16.974;2022-09-25T12:52:24;99624.36;;;18.96;57.26
23635;BME280;11994;51.038;16.974;2022-09-25T12:58:04;99625.81;;;18.87;57.44
23635;BME280;11994;51.038;16.974;2022-09-25T13:00:41;99625.55;;;18.85;57.21
23635;BME280;11994;51.038;16.974;2022-09-25T13:03:20;99621.68;;;18.83;56.38
23635;BME280;11994;51.038;16.974;2022-09-25T13:06:04;99626.04;;;18.84;56.82
23635;BME280;11994;51.038;16.974;2022-09-25T13:08:54;99623.11;;;18.82;55.14
23635;BME280;11994;51.038;16.974;2022-09-25T13:11:26;99621.72;;;18.69;56.38
23635;BME280;11994;51.038;16.974;2022-09-25T13:13:53;99614.52;;;18.64;56.35
23635;BME280;11994;51.038;16.974;2022-09-25T13:16:20;99613.59;;;18.65;56.17
23635;BME280;11994;51.038;16.974;2022-09-25T13:19:06;99606.45;;;18.66;56.54
23635;BME280;11994;51.038;16.974;2022-09-25T13:21:37;99605.13;;;18.66;56.83
23635;BME280;11994;51.038;16.974;2022-09-25T13:24:11;99602.19;;;18.63;56.68
23635;BME280;11994;51.038;16.974;2022-09-25T13:26:49;99601.81;;;18.62;56.84
23635;BME280;11994;51.038;16.974;2022-09-25T13:29:32;99601.36;;;18.63;57.00
23635;BME280;11994;51.038;16.974;2022-09-25T13:32:14;99602.28;;;18.62;57.10
23635;BME280;11994;51.038;16.974;2022-09-25T13:34:43;99600.13;;;18.61;57.23
23635;BME280;11994;51.038;16.974;2022-09-25T13:37:11;99601.73;;;18.64;57.63
23635;BME280;11994;51.038;16.974;2022-09-25T13:39:47;99597.64;;;18.65;57.77
23635;BME280;11994;51.038;16.974;2022-09-25T13:42:38;99589.17;;;18.66;57.78
23635;BME280;11994;51.038;16.974;2022-09-25T13:45:30;99584.41;;;18.71;57.75
23635;BME280;11994;51.038;16.974;2022-09-25T13:48:10;99581.94;;;18.75;57.27
23635;BME280;11994;51.038;16.974;2022-09-25T13:50:42;99579.55;;;18.77;57.04
23635;BME280;11994;51.038;16.974;2022-09-25T13:53:13;99576.49;;;18.76;57.07
23635;BME280;11994;51.038;16.974;2022-09-25T13:58:25;99576.63;;;18.75;56.88
23635;BME280;11994;51.038;16.974;2022-09-25T14:00:57;99578.05;;;18.73;56.88
23635;BME280;11994;51.038;16.974;2022-09-25T14:06:12;99575.84;;;18.73;56.41
23635;BME280;11994;51.038;16.974;2022-09-25T14:08:43;99575.75;;;18.74;56.61
23635;BME280;11994;51.038;16.974;2022-09-25T14:11:12;99573.96;;;18.75;56.44
23635;BME280;11994;51.038;16.974;2022-09-25T14:13:40;99576.13;;;18.75;56.24
23635;BME280;11994;51.038;16.974;2022-09-25T14:16:17;99558.98;;;18.67;56.37
23635;BME280;11994;51.038;16.974;2022-09-25T14:18:52;99573.84;;;18.76;56.60
23635;BME280;11994;51.038;16.974;2022-09-25T14:21:21;99574.11;;;18.79;56.85
23635;BME280;11994;51.038;16.974;2022-09-25T14:23:54;99570.71;;;18.77;56.55
23635;BME280;11994;51.038;16.974;2022-09-25T14:26:24;99585.43;;;18.75;56.58
23635;BME280;11994;51.038;16.974;2022-09-25T14:28:54;99574.06;;;18.73;56.63
23635;BME280;11994;51.038;16.974;2022-09-25T14:37:02;99565.81;;;18.71;57.08
23635;BME280;11994;51.038;16.974;2022-09-25T14:48:25;99567.55;;;18.65;57.37
23635;BME280;11994;51.038;16.974;2022-09-25T14:51:09;99549.63;;;18.61;57.71
23635;BME280;11994;51.038;16.974;2022-09-25T14:53:43;99554.57;;;18.60;57.98
23635;BME280;11994;51.038;16.974;2022-09-25T14:56:09;99547.53;;;18.59;58.35
23635;BME280;11994;51.038;16.974;2022-09-25T14:58:44;99552.10;;;18.57;58.36
23635;BME280;11994;51.038;16.974;2022-09-25T15:01:12;99554.02;;;18.55;58.22
23635;BME280;11994;51.038;16.974;2022-09-25T15:04:03;99550.59;;;18.53;57.96
23635;BME280;11994;51.038;16.974;2022-09-25T15:06:29;99545.41;;;18.52;57.92
23635;BME280;11994;51.038;16.974;2022-09-25T15:08:57;99537.89;;;18.51;57.85
23635;BME280;11994;51.038;16.974;2022-09-25T15:11:25;99535.98;;;18.53;57.83
23635;BME280;11994;51.038;16.974;2022-09-25T15:14:07;99524.02;;;18.53;57.81
23635;BME280;11994;51.038;16.974;2022-09-25T15:16:26;99532.17;;;18.57;57.89
23635;BME280;11994;51.038;16.974;2022-09-25T15:19:21;99525.44;;;18.59;58.01
23635;BME280;11994;51.038;16.974;2022-09-25T15:21:47;99526.77;;;18.59;57.74
23635;BME280;11994;51.038;16.974;2022-09-25T15:24:30;99524.20;;;18.57;58.21
23635;BME280;11994;51.038;16.974;2022-09-25T15:27:00;99527.45;;;18.55;58.20
23635;BME280;11994;51.038;16.974;2022-09-25T15:29:33;99525.75;;;18.54;58.31
23635;BME280;11994;51.038;16.974;2022-09-25T15:31:58;99522.41;;;18.51;58.29
23635;BME280;11994;51.038;16.974;2022-09-25T15:34:26;99523.23;;;18.46;58.40
23635;BME280;11994;51.038;16.974;2022-09-25T15:37:26;99528.82;;;18.41;58.16
23635;BME280;11994;51.038;16.974;2022-09-25T15:39:54;99516.49;;;18.40;57.96
23635;BME280;11994;51.038;16.974;2022-09-25T15:42:21;99518.23;;;18.34;57.89
23635;BME280;11994;51.038;16.974;2022-09-25T15:44:48;99516.16;;;18.32;57.79
23635;BME280;11994;51.038;16.974;2022-09-25T15:50:21;99521.84;;;18.26;58.51
23635;BME280;11994;51.038;16.974;2022-09-25T15:52:56;99521.29;;;18.21;58.50
23635;BME280;11994;51.038;16.974;2022-09-25T15:55:25;99521.84;;;18.19;58.74